createdAt,value
2023-03-11T00:00:25.427Z,71.79
2023-03-11T00:02:55.636Z,71.00
2023-03-11T00:05:27.527Z,72.59
2023-03-11T00:07:56.434Z,72.20
2023-03-11T00:10:29.873Z,71.92
2023-03-11T00:12:58.889Z,71.78
2023-03-11T00:15:27.125Z,71.63
2023-03-11T00:17:55.725Z,71.73
2023-03-11T00:20:28.503Z,72.46
2023-03-11T00:22:57.541Z,71.41
2023-03-11T00:25:28.886Z,70.98
2023-03-11T00:27:57.242Z,71.09
2023-03-11T00:30:26.045Z,73.19
2023-03-11T00:32:57.092Z,72.72
2023-03-11T00:35:29.160Z,71.71
2023-03-11T00:37:59.495Z,71.40
2023-03-11T00:40:30.731Z,72.56
2023-03-11T00:42:59.233Z,72.16
2023-03-11T00:45:28.334Z,71.92
2023-03-11T00:47:57.332Z,72.63
2023-03-11T00:50:29.673Z,73.52
2023-03-11T00:52:58.718Z,73.15
2023-03-11T00:55:29.254Z,73.01
2023-03-11T00:58:00.213Z,73.45
2023-03-11T01:00:33.482Z,73.91
2023-03-11T01:03:04.352Z,74.12
2023-03-11T01:05:35.546Z,74.56
2023-03-11T01:08:04.954Z,74.54
2023-03-11T01:10:34.579Z,73.47
2023-03-11T01:13:03.127Z,74.44
2023-03-11T01:15:33.384Z,73.69
2023-03-11T01:18:01.895Z,73.09
2023-03-11T01:20:30.593Z,73.14
2023-03-11T01:23:00.131Z,73.29
2023-03-11T01:25:29.719Z,74.15
2023-03-11T01:27:59.463Z,74.32
2023-03-11T01:30:29.527Z,73.24
2023-03-11T01:32:58.605Z,72.74
2023-03-11T01:35:29.362Z,72.04
2023-03-11T01:37:59.421Z,73.20
2023-03-11T01:40:32.210Z,74.94
2023-03-11T01:43:06.849Z,74.61
2023-03-11T01:45:43.279Z,76.42
2023-03-11T01:48:13.446Z,75.29
2023-03-11T01:50:45.277Z,73.95
2023-03-11T01:53:16.743Z,73.22
2023-03-11T01:55:46.671Z,73.10
2023-03-11T01:58:20.034Z,71.15
2023-03-11T02:00:48.649Z,73.30
2023-03-11T02:03:23.223Z,72.26
2023-03-11T02:05:53.998Z,72.05
2023-03-11T02:08:23.858Z,72.34
2023-03-11T02:10:54.377Z,71.77
2023-03-11T02:13:22.608Z,71.68
2023-03-11T02:15:51.111Z,72.32
2023-03-11T02:18:21.243Z,72.46
2023-03-11T02:20:58.381Z,72.82
2023-03-11T02:23:35.094Z,72.59
2023-03-11T02:26:09.493Z,71.24
2023-03-11T02:28:41.554Z,70.59
2023-03-11T02:31:09.925Z,71.34
2023-03-11T02:33:38.548Z,70.61
2023-03-11T02:36:07.670Z,69.96
2023-03-11T02:38:36.748Z,70.58
2023-03-11T02:41:07.171Z,69.38
2023-03-11T02:43:38.657Z,69.53
2023-03-11T02:46:11.956Z,69.80
2023-03-11T02:48:40.368Z,70.02
2023-03-11T02:51:08.852Z,69.88
2023-03-11T02:53:43.786Z,68.37
2023-03-11T02:56:12.101Z,68.61
2023-03-11T02:58:40.164Z,67.22
2023-03-11T03:01:11.965Z,66.99
2023-03-11T03:03:42.612Z,66.99
2023-03-11T03:06:11.529Z,66.37
2023-03-11T03:08:39.638Z,66.77
2023-03-11T03:11:08.116Z,66.49
2023-03-11T03:13:36.425Z,65.59
2023-03-11T03:16:05.004Z,64.03
2023-03-11T03:18:35.282Z,65.19
2023-03-11T03:21:03.413Z,65.46
2023-03-11T03:23:35.185Z,66.54
2023-03-11T03:26:03.486Z,65.83
2023-03-11T03:28:32.583Z,67.46
2023-03-11T03:31:05.694Z,67.34
2023-03-11T03:33:35.466Z,68.98
2023-03-11T03:36:08.353Z,70.01
2023-03-11T03:38:41.215Z,67.39
2023-03-11T03:41:10.201Z,69.08
2023-03-11T03:43:41.423Z,68.72
2023-03-11T03:46:10.228Z,67.89
2023-03-11T03:48:46.699Z,67.62
2023-03-11T03:51:15.655Z,67.80
2023-03-11T03:53:55.975Z,67.66
2023-03-11T03:56:26.127Z,67.58
2023-03-11T03:58:54.753Z,67.22
2023-03-11T04:01:25.248Z,66.36
2023-03-11T04:03:54.928Z,68.06
2023-03-11T04:06:25.106Z,67.39
2023-03-11T04:09:00.610Z,67.09
2023-03-11T04:11:33.315Z,69.34
2023-03-11T04:14:03.257Z,68.63
2023-03-11T04:16:33.625Z,67.24
2023-03-11T04:19:08.110Z,67.62
2023-03-11T04:21:37.140Z,67.93
2023-03-11T04:24:05.962Z,69.22
2023-03-11T04:26:37.056Z,69.42
2023-03-11T04:29:07.466Z,69.55
2023-03-11T04:31:41.096Z,70.15
2023-03-11T04:34:11.575Z,70.07
2023-03-11T04:36:40.970Z,70.44
2023-03-11T04:39:10.637Z,70.60
2023-03-11T04:41:43.041Z,71.16
2023-03-11T04:44:14.602Z,70.67
2023-03-11T04:46:43.001Z,69.95
2023-03-11T04:49:13.165Z,72.76
2023-03-11T04:51:41.582Z,72.21
2023-03-11T04:54:10.091Z,71.67
2023-03-11T04:56:38.246Z,72.32
2023-03-11T04:59:07.784Z,71.15
2023-03-11T05:01:38.294Z,72.17
2023-03-11T05:04:09.472Z,71.03
2023-03-11T05:06:39.041Z,72.25
2023-03-11T05:09:07.906Z,72.07
2023-03-11T05:11:38.966Z,72.68
2023-03-11T05:14:07.333Z,74.13
2023-03-11T05:16:35.812Z,74.75
2023-03-11T05:19:25.939Z,76.32
2023-03-11T05:21:55.729Z,79.08
2023-03-11T05:24:26.705Z,79.48
2023-03-11T05:26:55.681Z,79.06
2023-03-11T05:29:24.977Z,81.86
2023-03-11T05:31:54.844Z,83.49
2023-03-11T05:34:23.445Z,85.98
2023-03-11T05:36:51.840Z,86.97
2023-03-11T05:39:21.464Z,85.40
2023-03-11T05:41:49.669Z,86.46
2023-03-11T05:44:17.780Z,85.70
2023-03-11T05:46:45.899Z,87.43
2023-03-11T05:49:14.028Z,87.77
2023-03-11T05:51:42.512Z,88.10
2023-03-11T05:54:15.210Z,88.45
2023-03-11T05:56:49.018Z,87.73
2023-03-11T05:59:18.750Z,87.22
2023-03-11T06:01:53.489Z,86.49
2023-03-11T06:04:22.688Z,88.96
2023-03-11T06:06:50.992Z,88.95
2023-03-11T06:09:21.696Z,87.48
2023-03-11T06:11:51.482Z,86.24
2023-03-11T06:14:21.668Z,87.54
2023-03-11T06:16:51.869Z,88.37
2023-03-11T06:19:21.669Z,87.21
2023-03-11T06:21:52.186Z,87.83
2023-03-11T06:24:20.419Z,87.56
2023-03-11T06:26:53.817Z,88.77
2023-03-11T06:29:26.670Z,87.37
2023-03-11T06:31:55.918Z,87.45
2023-03-11T06:34:24.796Z,85.37
2023-03-11T06:36:54.898Z,83.53
2023-03-11T06:39:23.171Z,85.93
2023-03-11T06:41:54.217Z,87.50
2023-03-11T06:44:22.368Z,86.59
2023-03-11T06:46:50.455Z,86.97
2023-03-11T06:49:19.332Z,88.91
2023-03-11T06:51:47.400Z,89.66
2023-03-11T06:54:16.512Z,89.63
2023-03-11T06:56:44.841Z,90.42
2023-03-11T06:59:15.857Z,92.59
2023-03-11T07:01:43.937Z,92.98
2023-03-11T07:04:12.382Z,93.39
2023-03-11T07:06:43.571Z,92.66
2023-03-11T07:09:19.306Z,94.37
2023-03-11T07:11:47.734Z,94.57
2023-03-11T07:14:23.300Z,95.59
2023-03-11T07:16:55.201Z,94.04
2023-03-11T07:19:29.571Z,93.39
2023-03-11T07:21:57.695Z,94.06
2023-03-11T07:24:25.810Z,93.73
2023-03-11T07:26:53.912Z,93.32
2023-03-11T07:29:23.338Z,92.41
2023-03-11T07:31:51.498Z,93.50
2023-03-11T07:34:19.655Z,93.22
2023-03-11T07:36:47.817Z,93.90
2023-03-11T07:39:18.027Z,93.36
2023-03-11T07:41:46.836Z,92.69
2023-03-11T07:44:16.871Z,91.78
2023-03-11T07:46:47.078Z,91.57
2023-03-11T07:49:15.258Z,90.65
2023-03-11T07:51:44.088Z,89.74
2023-03-11T07:54:13.224Z,89.25
2023-03-11T07:56:41.361Z,88.56
2023-03-11T07:59:09.571Z,88.58
2023-03-11T08:01:40.681Z,87.75
2023-03-11T08:04:14.530Z,87.47
2023-03-11T08:06:43.870Z,87.83
2023-03-11T08:09:12.206Z,85.98
2023-03-11T08:11:40.797Z,87.65
2023-03-11T08:14:09.050Z,87.11
2023-03-11T08:16:37.282Z,86.99
2023-03-11T08:19:05.352Z,85.18
2023-03-11T08:21:34.876Z,84.95
2023-03-11T08:24:06.555Z,84.26
2023-03-11T08:26:35.028Z,83.34
2023-03-11T08:29:03.075Z,85.31
2023-03-11T08:31:33.726Z,85.43
2023-03-11T08:34:03.724Z,87.01
2023-03-11T08:36:32.744Z,86.24
2023-03-11T08:39:03.517Z,85.56
2023-03-11T08:41:31.858Z,84.19
2023-03-11T08:44:00.126Z,84.94
2023-03-11T08:46:30.760Z,85.66
2023-03-11T08:49:01.201Z,85.33
2023-03-11T08:51:30.530Z,84.78
2023-03-11T08:53:58.618Z,85.09
2023-03-11T08:56:29.053Z,86.40
2023-03-11T08:58:57.405Z,86.63
2023-03-11T09:01:25.736Z,85.66
2023-03-11T09:03:53.946Z,85.07
2023-03-11T09:06:22.649Z,85.38
2023-03-11T09:08:51.166Z,84.89
2023-03-11T09:11:22.079Z,85.55
2023-03-11T09:13:51.942Z,85.46
2023-03-11T09:16:25.577Z,83.68
2023-03-11T09:18:53.650Z,85.67
2023-03-11T09:21:21.809Z,85.65
2023-03-11T09:23:50.072Z,85.53
2023-03-11T09:28:49.301Z,84.73
2023-03-11T09:31:19.793Z,84.53
2023-03-11T09:33:48.523Z,84.23
2023-03-11T09:36:18.679Z,84.68
2023-03-11T09:38:47.903Z,84.98
2023-03-11T09:41:27.240Z,86.81
2023-03-11T09:44:06.409Z,85.23
2023-03-11T09:47:07.679Z,83.98
2023-03-11T09:49:48.639Z,85.40
2023-03-11T09:52:20.374Z,85.75
2023-03-11T09:54:52.292Z,86.42
2023-03-11T09:57:24.313Z,85.58
2023-03-11T09:59:52.946Z,87.14
2023-03-11T10:02:26.749Z,85.90
2023-03-11T10:04:59.962Z,86.70
2023-03-11T10:07:34.990Z,85.83
2023-03-11T10:10:03.863Z,86.71
2023-03-11T10:12:46.064Z,86.78
2023-03-11T10:15:20.930Z,86.33
2023-03-11T10:18:13.351Z,85.08
2023-03-11T10:20:52.207Z,85.13
2023-03-11T10:23:27.293Z,85.36
2023-03-11T10:26:04.151Z,86.64
2023-03-11T10:28:36.838Z,87.52
2023-03-11T10:31:19.089Z,89.65
2023-03-11T10:33:51.968Z,90.16
2023-03-11T10:36:24.616Z,92.84
2023-03-11T10:38:55.049Z,92.45
2023-03-11T10:41:31.240Z,93.52
2023-03-11T10:44:05.318Z,92.98
2023-03-11T10:46:33.438Z,92.33
2023-03-11T10:49:02.869Z,93.07
2023-03-11T10:51:35.755Z,91.76
2023-03-11T10:54:04.994Z,93.52
2023-03-11T10:56:36.030Z,94.26
2023-03-11T10:59:06.329Z,93.97
2023-03-11T11:01:34.700Z,95.25
2023-03-11T11:04:04.698Z,96.05
2023-03-11T11:06:34.512Z,96.69
2023-03-11T11:09:11.867Z,98.34
2023-03-11T11:11:40.293Z,98.50
2023-03-11T11:14:09.528Z,97.29
2023-03-11T11:16:38.114Z,97.20
2023-03-11T11:19:11.911Z,97.34
2023-03-11T11:21:43.386Z,96.01
2023-03-11T11:24:25.763Z,96.54
2023-03-11T11:27:08.401Z,98.60
2023-03-11T11:29:36.750Z,100.00
2023-03-11T11:32:21.632Z,99.49
2023-03-11T11:35:00.676Z,100.00
2023-03-11T11:37:32.444Z,100.00
2023-03-11T11:40:11.203Z,100.00
2023-03-11T11:42:41.618Z,100.00
2023-03-11T11:45:17.436Z,100.00
2023-03-11T11:47:49.899Z,100.00
2023-03-11T11:50:27.406Z,100.00
2023-03-11T11:53:04.191Z,100.00
2023-03-11T11:55:34.250Z,100.00
2023-03-11T11:58:02.385Z,100.00
2023-03-11T12:00:39.767Z,100.00
2023-03-11T12:03:25.596Z,100.00
2023-03-11T12:05:59.073Z,100.00
2023-03-11T12:08:35.179Z,100.00
2023-03-11T12:11:05.769Z,100.00
2023-03-11T12:14:00.290Z,100.00
2023-03-11T12:16:39.637Z,100.00
2023-03-11T12:19:19.151Z,100.00
2023-03-11T12:22:17.553Z,100.00
2023-03-11T12:25:09.713Z,100.00
2023-03-11T12:27:45.595Z,100.00
2023-03-11T12:30:18.344Z,100.00
2023-03-11T12:32:50.354Z,100.00
2023-03-11T12:35:26.430Z,100.00
2023-03-11T12:38:06.940Z,99.97
2023-03-11T12:41:00.030Z,99.03
2023-03-11T12:43:44.347Z,98.93
2023-03-11T12:46:14.378Z,98.63
2023-03-11T12:48:46.738Z,98.36
2023-03-11T12:51:41.775Z,98.40
2023-03-11T12:54:31.031Z,97.07
2023-03-11T12:57:00.640Z,97.27
2023-03-11T13:00:07.829Z,99.73
2023-03-11T13:02:58.014Z,99.89
2023-03-11T13:05:32.443Z,99.62
2023-03-11T13:08:05.190Z,100.00
2023-03-11T13:10:40.706Z,99.87
2023-03-11T13:13:38.053Z,99.06
2023-03-11T13:16:38.654Z,95.79
2023-03-11T13:19:43.403Z,92.52
2023-03-11T13:22:44.269Z,91.33
2023-03-11T13:25:32.946Z,89.76
2023-03-11T13:28:29.213Z,90.33
2023-03-11T13:31:06.450Z,91.87
2023-03-11T13:33:46.525Z,94.16
2023-03-11T13:36:31.171Z,94.33
2023-03-11T13:39:26.928Z,95.35
2023-03-11T13:41:56.299Z,94.77
2023-03-11T13:44:30.705Z,95.25
2023-03-11T13:47:04.994Z,93.83
2023-03-11T13:49:39.492Z,95.63
2023-03-11T13:52:11.461Z,94.08
2023-03-11T13:54:44.869Z,92.14
2023-03-11T13:57:26.706Z,93.65
2023-03-11T13:59:57.593Z,92.79
2023-03-11T14:02:27.947Z,94.26
2023-03-11T14:04:59.698Z,96.22
2023-03-11T14:07:30.926Z,95.34
2023-03-11T14:10:21.261Z,96.41
2023-03-11T14:12:50.031Z,96.79
2023-03-11T14:15:24.429Z,97.47
2023-03-11T14:17:54.264Z,98.08
2023-03-11T14:20:25.561Z,98.16
2023-03-11T14:22:56.104Z,95.48
2023-03-11T14:25:27.324Z,94.28
2023-03-11T14:27:58.144Z,93.40
2023-03-11T14:30:29.724Z,92.78
2023-03-11T14:33:00.943Z,92.42
2023-03-11T14:35:29.553Z,90.71
2023-03-11T14:37:59.118Z,90.40
2023-03-11T14:40:30.807Z,90.35
2023-03-11T14:43:02.408Z,88.81
2023-03-11T14:45:34.636Z,87.53
2023-03-11T14:48:08.291Z,83.64
2023-03-11T14:50:36.987Z,83.09
2023-03-11T14:53:10.072Z,82.33
2023-03-11T14:55:43.219Z,83.64
2023-03-11T14:58:16.453Z,83.14
2023-03-11T15:00:50.532Z,82.66
2023-03-11T15:03:24.554Z,83.08
2023-03-11T15:05:56.362Z,83.09
2023-03-11T15:08:28.243Z,82.34
2023-03-11T15:11:09.097Z,83.35
2023-03-11T15:13:38.594Z,83.04
2023-03-11T15:16:22.761Z,83.10
2023-03-11T15:18:51.003Z,85.08
2023-03-11T15:21:20.975Z,83.73
2023-03-11T15:23:50.957Z,83.36
2023-03-11T15:26:22.624Z,83.15
2023-03-11T15:28:59.393Z,84.82
2023-03-11T15:31:35.552Z,83.32
2023-03-11T15:34:27.267Z,85.16
2023-03-11T15:37:21.368Z,84.97
2023-03-11T15:39:53.215Z,86.25
2023-03-11T15:42:25.740Z,87.71
2023-03-11T15:45:05.824Z,86.93
2023-03-11T15:47:36.238Z,87.09
2023-03-11T15:50:24.163Z,87.97
2023-03-11T15:52:54.427Z,86.96
2023-03-11T15:55:22.908Z,87.71
2023-03-11T15:57:55.141Z,88.78
2023-03-11T16:00:24.907Z,88.34
2023-03-11T16:02:54.857Z,88.43
2023-03-11T16:05:25.112Z,88.13
2023-03-11T16:07:53.257Z,90.46
2023-03-11T16:10:22.844Z,89.98
2023-03-11T16:12:51.051Z,90.72
2023-03-11T16:15:28.515Z,91.60
2023-03-11T16:17:59.505Z,92.53
2023-03-11T16:20:30.104Z,93.29
2023-03-11T16:22:59.766Z,94.35
2023-03-11T16:25:30.375Z,94.20
2023-03-11T16:27:59.005Z,96.36
2023-03-11T16:30:28.591Z,96.73
2023-03-11T16:32:58.440Z,95.31
2023-03-11T16:35:27.526Z,92.69
2023-03-11T16:37:55.730Z,95.04
2023-03-11T16:40:27.318Z,92.66
2023-03-11T16:42:58.075Z,91.77
2023-03-11T16:45:26.353Z,91.37
2023-03-11T16:47:54.468Z,89.45
2023-03-11T16:50:24.998Z,91.92
2023-03-11T16:52:53.569Z,91.54
2023-03-11T16:55:22.207Z,91.54
2023-03-11T16:57:50.325Z,90.40
2023-03-11T17:00:19.302Z,89.77
2023-03-11T17:02:47.741Z,87.42
2023-03-11T17:05:15.858Z,88.67
2023-03-11T17:07:45.402Z,88.44
2023-03-11T17:10:13.915Z,90.10
2023-03-11T17:12:42.032Z,88.56
2023-03-11T17:15:10.619Z,87.97
2023-03-11T17:17:38.679Z,87.86
2023-03-11T17:20:08.757Z,89.15
2023-03-11T17:22:37.166Z,87.77
2023-03-11T17:25:07.867Z,88.30
2023-03-11T17:27:36.391Z,88.73
2023-03-11T17:30:07.177Z,88.02
2023-03-11T17:32:35.515Z,87.38
2023-03-11T17:35:03.616Z,87.89
2023-03-11T17:37:33.308Z,86.27
2023-03-11T17:40:01.430Z,86.40
2023-03-11T17:42:30.992Z,86.53
2023-03-11T17:44:59.492Z,86.10
2023-03-11T17:47:27.644Z,86.71
2023-03-11T17:49:55.720Z,86.54
2023-03-11T17:52:23.838Z,86.33
2023-03-11T17:54:53.557Z,87.53
2023-03-11T17:57:21.725Z,87.04
2023-03-11T17:59:53.688Z,87.15
2023-03-11T18:02:22.281Z,86.17
2023-03-11T18:04:53.988Z,87.87
2023-03-11T18:07:23.803Z,86.55
2023-03-11T18:09:53.116Z,86.55
2023-03-11T18:12:21.959Z,87.63
2023-03-11T18:14:50.158Z,87.20
2023-03-11T18:17:21.165Z,85.12
2023-03-11T18:19:49.258Z,84.48
2023-03-11T18:22:17.308Z,83.25
2023-03-11T18:24:45.701Z,82.69
2023-03-11T18:27:13.745Z,82.06
2023-03-11T18:29:42.221Z,81.49
2023-03-11T18:32:10.508Z,81.16
2023-03-11T18:34:40.529Z,81.07
2023-03-11T18:37:08.750Z,80.68
2023-03-11T18:39:36.811Z,79.50
2023-03-11T18:42:05.853Z,79.10
2023-03-11T18:44:36.495Z,79.58
2023-03-11T18:47:05.092Z,79.38
2023-03-11T18:49:33.237Z,78.84
2023-03-11T18:52:02.826Z,79.42
2023-03-11T18:54:30.840Z,79.54
2023-03-11T18:56:58.954Z,79.79
2023-03-11T18:59:28.352Z,79.58
2023-03-11T19:01:56.477Z,79.53
2023-03-11T19:04:24.539Z,81.46
2023-03-11T19:06:52.661Z,79.93
2023-03-11T19:09:22.145Z,80.00
2023-03-11T19:11:50.243Z,80.58
2023-03-11T19:14:18.328Z,81.46
2023-03-11T19:16:46.479Z,81.26
2023-03-11T19:19:14.615Z,80.94
2023-03-11T19:21:42.765Z,81.42
2023-03-11T19:24:10.967Z,81.71
2023-03-11T19:26:45.269Z,86.30
2023-03-11T19:29:14.150Z,91.29
2023-03-11T19:31:43.639Z,94.11
2023-03-11T19:34:11.988Z,92.58
2023-03-11T19:36:40.411Z,90.50
2023-03-11T19:39:08.906Z,88.91
2023-03-11T19:41:37.231Z,86.64
2023-03-11T19:44:06.789Z,86.35
2023-03-11T19:46:36.600Z,84.80
2023-03-11T19:49:05.441Z,82.68
2023-03-11T19:51:48.609Z,82.63
2023-03-11T19:54:18.296Z,82.05
2023-03-11T19:56:46.511Z,81.12
2023-03-11T19:59:16.083Z,80.88
2023-03-11T20:01:44.234Z,79.91
2023-03-11T20:04:12.686Z,79.94
2023-03-11T20:06:41.045Z,79.29
2023-03-11T20:09:09.148Z,78.54
2023-03-11T20:11:39.951Z,79.10
2023-03-11T20:14:08.861Z,77.99
2023-03-11T20:16:38.467Z,77.63
2023-03-11T20:19:06.688Z,78.44
2023-03-11T20:21:39.060Z,77.08
2023-03-11T20:24:08.246Z,77.30
2023-03-11T20:26:36.639Z,77.77
2023-03-11T20:29:05.505Z,77.64
2023-03-11T20:31:33.815Z,78.54
2023-03-11T20:34:03.451Z,78.42
2023-03-11T20:36:34.011Z,77.93
2023-03-11T20:39:02.852Z,77.82
2023-03-11T20:41:37.463Z,78.99
2023-03-11T20:44:07.065Z,79.70
2023-03-11T20:46:35.774Z,78.73
2023-03-11T20:49:05.437Z,78.48
2023-03-11T20:51:33.688Z,79.87
2023-03-11T20:54:01.852Z,79.48
2023-03-11T20:56:30.186Z,80.65
2023-03-11T20:59:01.035Z,79.79
2023-03-11T21:01:31.070Z,80.04
2023-03-11T21:04:01.690Z,79.91
2023-03-11T21:06:34.292Z,81.22
2023-03-11T21:09:05.825Z,80.85
2023-03-11T21:11:34.713Z,80.50
2023-03-11T21:14:02.919Z,82.93
2023-03-11T21:16:31.165Z,82.50
2023-03-11T21:19:01.518Z,83.01
2023-03-11T21:21:31.243Z,81.56
2023-03-11T21:23:59.392Z,83.27
2023-03-11T21:26:27.794Z,83.30
2023-03-11T21:28:56.024Z,82.64
2023-03-11T21:31:29.072Z,83.99
2023-03-11T21:33:59.299Z,83.86
2023-03-11T21:36:27.907Z,82.67
2023-03-11T21:38:57.487Z,82.65
2023-03-11T21:41:27.398Z,83.50
2023-03-11T21:43:57.603Z,83.92
2023-03-11T21:46:28.401Z,84.32
2023-03-11T21:48:57.095Z,85.26
2023-03-11T21:51:26.195Z,84.81
2023-03-11T21:53:54.458Z,84.31
2023-03-11T21:56:24.184Z,83.67
2023-03-11T21:58:53.895Z,84.12
2023-03-11T22:01:22.340Z,85.64
2023-03-11T22:03:50.953Z,84.82
2023-03-11T22:06:19.196Z,84.71
2023-03-11T22:08:47.267Z,84.90
2023-03-11T22:11:19.463Z,83.70
2023-03-11T22:13:51.324Z,83.44
2023-03-11T22:16:20.404Z,82.50
2023-03-11T22:18:49.037Z,83.07
2023-03-11T22:21:20.674Z,82.50
2023-03-11T22:23:49.497Z,82.52
2023-03-11T22:26:17.731Z,82.77
2023-03-11T22:28:45.802Z,82.31
2023-03-11T22:31:18.639Z,81.93
2023-03-11T22:33:47.341Z,80.95
2023-03-11T22:36:15.599Z,82.35
2023-03-11T22:38:45.134Z,81.55
2023-03-11T22:41:16.853Z,81.78
2023-03-11T22:43:45.003Z,81.18
2023-03-11T22:46:13.053Z,81.89
2023-03-11T22:48:42.761Z,81.20
2023-03-11T22:51:11.210Z,81.00
2023-03-11T22:53:39.510Z,82.37
2023-03-11T22:56:09.608Z,83.06
2023-03-11T22:58:37.822Z,81.70
2023-03-11T23:01:06.079Z,80.67
2023-03-11T23:03:35.161Z,81.86
2023-03-11T23:06:07.694Z,82.07
2023-03-11T23:08:36.869Z,81.81
2023-03-11T23:11:06.718Z,80.98
2023-03-11T23:13:36.209Z,80.88
2023-03-11T23:16:07.364Z,81.12
2023-03-11T23:18:36.000Z,80.92
2023-03-11T23:21:05.892Z,80.62
2023-03-11T23:23:33.980Z,80.21
2023-03-11T23:26:02.016Z,79.99
2023-03-11T23:28:30.204Z,79.88
2023-03-11T23:30:58.271Z,81.12
2023-03-11T23:33:26.480Z,81.64
2023-03-11T23:35:54.632Z,82.04
2023-03-11T23:38:24.187Z,81.51
2023-03-11T23:40:52.374Z,80.83
2023-03-11T23:43:23.618Z,79.98
2023-03-11T23:45:52.286Z,80.96
2023-03-11T23:48:20.356Z,80.89
2023-03-11T23:50:49.240Z,79.81
2023-03-11T23:53:21.397Z,78.87
2023-03-11T23:55:51.671Z,80.03
2023-03-11T23:58:20.365Z,80.15
